Time;durP1;ratioP1;P1;durP2;ratioP2;P2;SDS_P1;SDS_P2;PMS_P1;PMS_P2;Temp;Humidity;BMP_temperature;BMP_pressure;BME280_temperature;BME280_humidity;BME280_pressure;Samples;Min_cycle;Max_cycle;Signal;HPM_P1;HPM_P2
2023/08/07 00:00:19;;;;;;;14.40;3.38;;;;;;;12.70;100.00;101205.50;5103227;28;20032;-76
2023/08/07 00:02:44;;;;;;;17.38;4.55;;;;;;;12.73;100.00;101207.94;5105983;28;20027;-76
2023/08/07 00:05:10;;;;;;;15.35;3.42;;;;;;;12.73;100.00;101189.91;5103144;28;20026;-75
2023/08/07 00:07:35;;;;;;;20.85;4.22;;;;;;;12.74;100.00;101191.66;5097720;28;20091;-76
2023/08/07 00:10:01;;;;;;;15.75;3.95;;;;;;;12.75;100.00;101192.50;5091680;28;20051;-76
2023/08/07 00:12:27;;;;;;;17.55;3.53;;;;;;;12.76;100.00;101186.13;5095100;28;20074;-76
2023/08/07 00:14:53;;;;;;;19.02;3.35;;;;;;;12.77;100.00;101191.41;5099582;28;20031;-76
2023/08/07 00:17:18;;;;;;;17.88;3.83;;;;;;;12.77;100.00;101195.94;5102207;28;20142;-76
2023/08/07 00:19:43;;;;;;;13.07;3.75;;;;;;;12.77;100.00;101194.09;5095189;28;20024;-76
2023/08/07 00:22:09;;;;;;;21.08;3.80;;;;;;;12.79;100.00;101206.63;5103322;28;20019;-76
2023/08/07 00:24:35;;;;;;;14.82;3.83;;;;;;;12.82;100.00;101207.22;5108498;28;20110;-76
2023/08/07 00:27:00;;;;;;;15.60;3.05;;;;;;;12.86;100.00;101208.72;5088124;28;20024;-76
2023/08/07 00:29:26;;;;;;;17.77;3.58;;;;;;;12.90;100.00;101220.16;5095141;28;20037;-76
2023/08/07 00:31:51;;;;;;;15.35;3.75;;;;;;;12.89;100.00;101230.06;5091503;28;20080;-76
2023/08/07 00:34:16;;;;;;;18.10;3.80;;;;;;;12.91;100.00;101225.44;5113335;28;20023;-76
2023/08/07 00:36:42;;;;;;;14.45;3.97;;;;;;;12.89;100.00;101227.38;5098358;28;20042;-76
2023/08/07 00:39:08;;;;;;;14.57;3.42;;;;;;;12.90;100.00;101215.59;5103024;28;20391;-76
2023/08/07 00:41:33;;;;;;;12.10;3.15;;;;;;;12.85;100.00;101212.38;5091602;28;20052;-76
2023/08/07 00:43:59;;;;;;;10.75;3.05;;;;;;;12.81;100.00;101220.84;5103995;28;20051;-76
2023/08/07 00:46:24;;;;;;;14.15;3.05;;;;;;;12.76;100.00;101218.50;5082927;28;20036;-76
2023/08/07 00:48:52;;;;;;;12.98;3.55;;;;;;;12.73;100.00;101214.19;5091935;28;20029;-76
2023/08/07 00:51:17;;;;;;;15.13;4.07;;;;;;;12.70;100.00;101225.22;5102184;28;20121;-76
2023/08/07 00:53:43;;;;;;;17.55;3.53;;;;;;;12.69;100.00;101236.13;5094133;28;20052;-76
2023/08/07 00:56:09;;;;;;;14.68;3.20;;;;;;;12.67;100.00;101246.19;5095642;28;20399;-78
2023/08/07 00:58:34;;;;;;;12.50;3.13;;;;;;;12.64;100.00;101246.41;5085060;28;20032;-78
2023/08/07 01:00:59;;;;;;;13.27;3.97;;;;;;;12.62;100.00;101226.78;5105296;28;20315;-78
2023/08/07 01:03:25;;;;;;;14.13;3.60;;;;;;;12.61;100.00;101220.53;5088332;28;20035;-78
2023/08/07 01:05:50;;;;;;;13.25;3.70;;;;;;;12.58;100.00;101216.22;5085752;28;20032;-78
2023/08/07 01:08:16;;;;;;;16.90;3.85;;;;;;;12.53;100.00;101213.03;5101881;28;20053;-78
2023/08/07 01:11:17;;;;;;;13.82;3.53;;;;;;;12.54;100.00;101217.44;5093014;28;20106;-78
2023/08/07 01:14:08;;;;;;;14.20;3.95;;;;;;;12.47;100.00;101213.47;5098190;28;20369;-78
2023/08/07 01:16:45;;;;;;;19.88;4.03;;;;;;;12.47;100.00;101210.78;5096430;28;20387;-78
2023/08/07 01:19:21;;;;;;;16.42;3.35;;;;;;;12.45;100.00;101219.97;5091173;28;20031;-78
2023/08/07 01:21:48;;;;;;;17.52;3.35;;;;;;;12.42;100.00;101226.47;5080132;28;20016;-78
2023/08/07 01:24:14;;;;;;;21.63;3.80;;;;;;;12.42;100.00;101223.75;5088295;28;20074;-78
2023/08/07 01:26:42;;;;;;;16.88;4.03;;;;;;;12.44;100.00;101234.44;5092323;28;20028;-78
2023/08/07 01:29:34;;;;;;;16.38;3.72;;;;;;;12.46;100.00;101227.97;5096009;28;20015;-78
2023/08/07 01:32:01;;;;;;;17.02;3.92;;;;;;;12.47;100.00;101235.03;5085863;28;20030;-78
2023/08/07 01:34:27;;;;;;;12.48;3.60;;;;;;;12.47;100.00;101247.69;5095713;28;20016;-78
2023/08/07 01:36:54;;;;;;;16.30;3.85;;;;;;;12.47;100.00;101245.81;5098011;28;20480;-78
2023/08/07 01:39:20;;;;;;;13.43;3.47;;;;;;;12.47;100.00;101236.91;5088280;28;20050;-78
2023/08/07 01:41:46;;;;;;;13.27;3.50;;;;;;;12.48;100.00;101244.88;5098769;28;20025;-78
2023/08/07 01:44:12;;;;;;;16.58;3.97;;;;;;;12.49;100.00;101251.09;5097583;28;20024;-78
2023/08/07 01:46:38;;;;;;;21.70;4.05;;;;;;;12.48;100.00;101247.56;5090980;28;20116;-78
2023/08/07 01:49:03;;;;;;;18.88;4.15;;;;;;;12.50;100.00;101256.38;5094932;28;20027;-78
2023/08/07 01:51:28;;;;;;;13.10;3.42;;;;;;;12.55;100.00;101256.06;5086568;28;20028;-78
2023/08/07 01:53:54;;;;;;;13.63;3.40;;;;;;;12.50;100.00;101251.00;5083639;28;20026;-78
2023/08/07 01:56:19;;;;;;;14.35;3.40;;;;;;;12.51;100.00;101247.31;5101752;28;20102;-78
2023/08/07 01:58:44;;;;;;;20.98;3.97;;;;;;;12.53;100.00;101250.78;5090318;28;20387;-78
2023/08/07 02:01:10;;;;;;;18.92;4.45;;;;;;;12.50;100.00;101259.06;5082403;28;20035;-78
2023/08/07 02:03:35;;;;;;;16.70;3.85;;;;;;;12.54;100.00;101251.63;5086749;28;20031;-78
2023/08/07 02:06:01;;;;;;;17.13;4.20;;;;;;;12.52;100.00;101250.91;5118158;28;20020;-75
2023/08/07 02:08:28;;;;;;;16.98;4.20;;;;;;;12.52;100.00;101259.84;5125285;27;20054;-77
2023/08/07 02:10:53;;;;;;;19.45;3.75;;;;;;;12.51;100.00;101260.81;5108216;28;20039;-78
2023/08/07 02:13:18;;;;;;;11.40;3.30;;;;;;;12.53;100.00;101261.56;5115877;28;20052;-77
2023/08/07 02:15:44;;;;;;;13.85;3.58;;;;;;;12.53;100.00;101258.00;5108976;28;20014;-75
2023/08/07 02:18:09;;;;;;;14.52;4.03;;;;;;;12.53;100.00;101260.69;5114748;28;20023;-76
2023/08/07 02:20:34;;;;;;;14.57;3.42;;;;;;;12.57;100.00;101264.88;5109944;28;20032;-76
2023/08/07 02:23:00;;;;;;;12.50;3.30;;;;;;;12.55;100.00;101269.53;5126753;28;20023;-75
2023/08/07 02:25:25;;;;;;;19.02;3.97;;;;;;;12.53;100.00;101266.09;5112643;28;20091;-76
2023/08/07 02:27:50;;;;;;;16.50;3.80;;;;;;;12.53;100.00;101260.69;5127007;28;20031;-76
2023/08/07 02:30:16;;;;;;;14.27;3.72;;;;;;;12.54;100.00;101262.41;5115562;28;20013;-75
2023/08/07 02:32:43;;;;;;;15.70;3.75;;;;;;;12.55;100.00;101256.91;5126902;28;20036;-75
2023/08/07 02:35:09;;;;;;;15.35;4.05;;;;;;;12.55;100.00;101251.50;5118103;28;20018;-76
2023/08/07 02:37:34;;;;;;;13.90;4.47;;;;;;;12.53;100.00;101253.47;5106632;28;20032;-75
2023/08/07 02:39:59;;;;;;;16.00;3.50;;;;;;;12.51;100.00;101250.03;5115066;28;20020;-77
2023/08/07 02:42:25;;;;;;;12.60;3.50;;;;;;;12.51;100.00;101258.09;5124090;28;20024;-76
2023/08/07 02:44:50;;;;;;;11.35;3.58;;;;;;;12.49;100.00;101260.06;5117247;28;20027;-75
2023/08/07 02:47:16;;;;;;;11.70;3.13;;;;;;;12.47;100.00;101253.91;5122697;28;20087;-76
2023/08/07 02:49:41;;;;;;;21.30;4.15;;;;;;;12.48;100.00;101258.34;5132019;28;20075;-75
2023/08/07 02:52:06;;;;;;;15.45;3.85;;;;;;;12.46;100.00;101254.91;5119635;28;20032;-75
2023/08/07 02:54:32;;;;;;;21.48;4.13;;;;;;;12.44;100.00;101251.44;5109712;28;20036;-77
2023/08/07 02:56:57;;;;;;;15.70;4.68;;;;;;;12.44;100.00;101247.91;5104525;28;20032;-76
2023/08/07 02:59:22;;;;;;;14.50;3.15;;;;;;;12.43;100.00;101246.19;5121694;28;20055;-76
2023/08/07 03:01:48;;;;;;;14.15;3.47;;;;;;;12.44;100.00;101251.44;5120124;28;20027;-78
2023/08/07 03:04:13;;;;;;;19.75;3.92;;;;;;;12.43;100.00;101251.56;5122810;28;20016;-78
2023/08/07 03:06:38;;;;;;;14.98;3.50;;;;;;;12.41;100.00;101255.22;5124601;28;20031;-76
2023/08/07 03:09:04;;;;;;;16.50;3.95;;;;;;;12.42;100.00;101258.81;5109870;28;20024;-76
2023/08/07 03:11:29;;;;;;;11.23;2.90;;;;;;;12.41;100.00;101259.78;5125771;28;20019;-78
2023/08/07 03:13:54;;;;;;;15.95;3.72;;;;;;;12.43;100.00;101260.53;5129630;28;20031;-75
2023/08/07 03:16:19;;;;;;;15.45;3.90;;;;;;;12.44;100.00;101251.44;5110940;28;20048;-76
2023/08/07 03:18:46;;;;;;;17.83;4.03;;;;;;;12.41;100.00;101257.94;5111410;28;20100;-78
2023/08/07 03:21:12;;;;;;;14.88;3.70;;;;;;;12.42;100.00;101258.81;5106178;28;20035;-75
2023/08/07 03:23:37;;;;;;;17.35;4.07;;;;;;;12.43;100.00;101263.22;5124909;28;20115;-75
2023/08/07 03:26:08;;;;;;;16.40;4.15;;;;;;;12.43;100.00;101260.53;5109672;28;20029;-75
2023/08/07 03:28:34;;;;;;;17.05;4.30;;;;;;;12.41;100.00;101246.28;5112112;28;20178;-76
2023/08/07 03:31:00;;;;;;;14.70;3.72;;;;;;;12.41;100.00;101246.28;5119512;28;20012;-75
2023/08/07 03:33:26;;;;;;;17.10;3.95;;;;;;;12.41;100.00;101243.59;5113089;28;20066;-76
2023/08/07 03:35:51;;;;;;;13.93;3.35;;;;;;;12.41;100.00;101239.06;5105449;28;20039;-76
2023/08/07 03:38:17;;;;;;;15.05;3.53;;;;;;;12.41;100.00;101238.22;5113528;28;20020;-75
2023/08/07 03:40:43;;;;;;;15.43;4.45;;;;;;;12.40;100.00;101239.19;5120689;28;20028;-75
2023/08/07 03:43:08;;;;;;;11.68;3.65;;;;;;;12.42;100.00;101237.25;5125569;28;20035;-75
2023/08/07 03:45:33;;;;;;;19.25;4.40;;;;;;;12.42;100.00;101237.25;5113548;28;20476;-76
2023/08/07 03:47:59;;;;;;;15.63;3.78;;;;;;;12.46;100.00;101237.84;5122827;28;20098;-76
2023/08/07 03:50:24;;;;;;;19.00;4.85;;;;;;;12.49;100.00;101232.22;5111360;28;20019;-75
2023/08/07 03:52:49;;;;;;;22.20;4.30;;;;;;;12.52;100.00;101243.66;5110408;28;20115;-77
2023/08/07 03:55:15;;;;;;;19.92;4.35;;;;;;;12.58;100.00;101240.50;5109990;28;20027;-77
2023/08/07 03:57:40;;;;;;;15.95;4.15;;;;;;;12.59;100.00;101239.53;5126902;28;20028;-75
2023/08/07 04:00:07;;;;;;;17.52;4.28;;;;;;;12.62;100.00;101242.97;5116097;28;20034;-75
2023/08/07 04:02:32;;;;;;;13.70;3.72;;;;;;;12.62;100.00;101248.34;5130467;28;20083;-75
2023/08/07 04:04:57;;;;;;;13.38;3.95;;;;;;;12.66;100.00;101249.84;5122778;28;20034;-75
2023/08/07 04:07:23;;;;;;;16.67;3.70;;;;;;;12.73;100.00;101251.09;5102896;28;20031;-76
2023/08/07 04:09:48;;;;;;;20.95;4.13;;;;;;;12.71;100.00;101266.56;5110054;28;20044;-76
2023/08/07 04:12:13;;;;;;;19.58;4.20;;;;;;;12.75;100.00;101257.22;5108970;28;20083;-75
2023/08/07 04:14:39;;;;;;;16.38;4.32;;;;;;;12.77;100.00;101258.84;5124485;28;20032;-77
2023/08/07 04:17:04;;;;;;;17.70;4.53;;;;;;;12.76;100.00;101250.88;5109262;28;20036;-75
2023/08/07 04:19:29;;;;;;;12.95;3.45;;;;;;;12.77;100.00;101256.13;5110889;28;20040;-75
2023/08/07 04:21:55;;;;;;;18.00;4.13;;;;;;;12.77;100.00;101263.38;5123025;28;20539;-75
2023/08/07 04:24:20;;;;;;;18.83;4.60;;;;;;;12.77;100.00;101260.69;5113520;28;20031;-77
2023/08/07 04:26:45;;;;;;;14.55;4.10;;;;;;;12.77;100.00;101258.00;5097353;28;20031;-80
2023/08/07 04:29:10;;;;;;;15.07;3.58;;;;;;;12.78;100.00;101270.47;5081480;28;20071;-80
2023/08/07 04:31:36;;;;;;;16.05;3.83;;;;;;;12.75;100.00;101268.00;5090356;28;20027;-80
2023/08/07 04:34:01;;;;;;;15.40;3.78;;;;;;;12.76;100.00;101267.91;5084974;28;20016;-80
2023/08/07 04:36:27;;;;;;;13.57;3.67;;;;;;;12.76;100.00;101272.44;5084500;28;20024;-80
2023/08/07 04:38:52;;;;;;;19.77;4.47;;;;;;;12.74;100.00;101275.25;5090770;28;20069;-80
2023/08/07 04:41:17;;;;;;;19.98;4.32;;;;;;;12.73;100.00;101272.69;5093010;28;20027;-81
2023/08/07 04:43:43;;;;;;;15.00;4.15;;;;;;;12.72;100.00;101276.34;5103302;28;20387;-80
2023/08/07 04:46:09;;;;;;;12.82;3.30;;;;;;;12.74;100.00;101279.81;5098969;28;20032;-80
2023/08/07 04:48:35;;;;;;;17.80;4.28;;;;;;;12.71;100.00;101275.50;5100840;28;20131;-80
2023/08/07 04:51:00;;;;;;;17.05;4.07;;;;;;;12.71;100.00;101278.19;5092851;28;20028;-80
2023/08/07 04:53:26;;;;;;;9.88;2.85;;;;;;;12.72;100.00;101268.25;5084841;28;20138;-80
2023/08/07 04:55:51;;;;;;;10.10;3.05;;;;;;;12.75;100.00;101278.81;5074820;28;20028;-80
2023/08/07 04:58:16;;;;;;;18.00;3.80;;;;;;;12.73;100.00;101275.38;5105639;28;20016;-80
2023/08/07 05:00:41;;;;;;;13.18;4.18;;;;;;;12.75;100.00;101281.50;5094065;28;20024;-80
2023/08/07 05:03:07;;;;;;;15.63;3.80;;;;;;;12.74;100.00;101277.09;5084926;28;20017;-81
2023/08/07 05:05:32;;;;;;;16.42;3.72;;;;;;;12.75;100.00;101279.69;5104055;28;20016;-81
2023/08/07 05:07:59;;;;;;;13.93;3.70;;;;;;;12.77;100.00;101282.25;5102217;28;20157;-81
2023/08/07 05:10:24;;;;;;;16.20;4.15;;;;;;;12.75;100.00;101285.06;5094804;28;20032;-80
2023/08/07 05:12:55;;;;;;;13.63;3.80;;;;;;;12.76;100.00;101284.06;5098475;28;20020;-81
2023/08/07 05:15:21;;;;;;;10.40;3.00;;;;;;;12.80;100.00;101289.25;5087364;28;20035;-80
2023/08/07 05:17:47;;;;;;;10.00;3.30;;;;;;;12.76;100.00;101291.31;5101684;28;20371;-81
2023/08/07 05:20:12;;;;;;;12.82;3.42;;;;;;;12.76;100.00;101305.66;5096818;28;20027;-80
2023/08/07 05:22:37;;;;;;;17.42;3.53;;;;;;;12.75;100.00;101293.16;5087148;28;20036;-81
2023/08/07 05:25:03;;;;;;;12.93;3.45;;;;;;;12.75;100.00;101293.16;5086898;28;20385;-81
2023/08/07 05:27:29;;;;;;;15.80;4.03;;;;;;;12.75;100.00;101300.38;5087653;28;20487;-80
2023/08/07 05:29:54;;;;;;;11.77;3.47;;;;;;;12.78;100.00;101305.53;5083643;28;20024;-80
2023/08/07 05:32:19;;;;;;;17.52;3.58;;;;;;;12.79;100.00;101309.13;5099181;28;20081;-80
2023/08/07 05:34:45;;;;;;;13.63;3.38;;;;;;;12.78;100.00;101313.63;5085169;28;20127;-80
2023/08/07 05:37:10;;;;;;;17.10;4.05;;;;;;;12.77;100.00;101307.38;5097892;28;20000;-76
2023/08/07 05:39:36;;;;;;;13.38;4.10;;;;;;;12.78;100.00;101316.31;5111398;28;20027;-75
2023/08/07 05:42:01;;;;;;;17.85;4.25;;;;;;;12.79;100.00;101323.44;5111189;28;20024;-75
2023/08/07 05:44:27;;;;;;;17.25;3.67;;;;;;;12.81;100.00;101318.81;5115872;28;20036;-75
2023/08/07 05:46:53;;;;;;;15.88;3.92;;;;;;;12.83;100.00;101318.72;5112980;28;20032;-75
2023/08/07 05:49:19;;;;;;;13.00;3.55;;;;;;;12.85;100.00;101330.22;5107611;28;20031;-75
2023/08/07 05:51:44;;;;;;;20.13;4.47;;;;;;;12.82;100.00;101339.41;5102570;28;20031;-74
2023/08/07 05:54:09;;;;;;;16.73;3.78;;;;;;;12.84;100.00;101344.69;5109301;28;20020;-75
2023/08/07 05:56:37;;;;;;;17.85;3.70;;;;;;;12.83;100.00;101346.53;5111220;28;20111;-77
2023/08/07 05:59:02;;;;;;;17.50;4.00;;;;;;;12.87;100.00;101341.75;5111088;28;20123;-75
2023/08/07 06:01:30;;;;;;;20.27;4.15;;;;;;;12.88;100.00;101341.63;5117176;28;20035;-74
2023/08/07 06:03:56;;;;;;;12.93;3.55;;;;;;;12.89;100.00;101343.38;5109304;28;20024;-75
2023/08/07 06:06:22;;;;;;;13.13;3.45;;;;;;;12.90;100.00;101345.09;5119050;28;20058;-74
2023/08/07 06:08:47;;;;;;;14.82;3.35;;;;;;;12.92;100.00;101342.28;5106363;28;20031;-75
2023/08/07 06:11:12;;;;;;;16.20;3.42;;;;;;;12.96;100.00;101338.38;5115201;28;20055;-74
2023/08/07 06:13:38;;;;;;;12.45;3.13;;;;;;;12.97;100.00;101340.06;5095232;28;20138;-74
2023/08/07 06:16:03;;;;;;;15.73;3.60;;;;;;;13.00;100.00;101347.09;5103069;28;20035;-75
2023/08/07 06:18:29;;;;;;;15.35;3.33;;;;;;;13.05;100.00;101353.00;5099173;28;20028;-75
2023/08/07 06:20:56;;;;;;;13.48;3.42;;;;;;;13.06;100.00;101350.19;5119159;28;20375;-75
2023/08/07 06:23:21;;;;;;;18.35;3.75;;;;;;;13.12;100.00;101356.97;5103443;28;20024;-74
2023/08/07 06:25:46;;;;;;;13.25;3.72;;;;;;;13.14;100.00;101346.91;5108399;28;20024;-74
2023/08/07 06:28:12;;;;;;;13.05;3.10;;;;;;;13.20;100.00;101356.38;5110282;28;20028;-75
2023/08/07 06:30:38;;;;;;;13.50;3.75;;;;;;;13.24;100.00;101358.72;5112654;28;20004;-74
2023/08/07 06:33:03;;;;;;;20.60;4.03;;;;;;;13.27;100.00;101363.03;5113389;28;21433;-75
2023/08/07 06:35:29;;;;;;;14.23;3.28;;;;;;;13.31;100.00;101366.34;5108065;28;20083;-77
2023/08/07 06:37:54;;;;;;;19.70;3.60;;;;;;;13.35;100.00;101378.66;5116324;28;20047;-74
2023/08/07 06:40:20;;;;;;;16.17;3.72;;;;;;;13.41;100.00;101387.16;5107304;28;20062;-75
2023/08/07 06:42:45;;;;;;;6.78;2.30;;;;;;;13.43;100.00;101381.66;5106553;28;20066;-76
2023/08/07 06:45:10;;;;;;;10.80;2.70;;;;;;;13.45;100.00;101374.28;5104340;28;20012;-75
2023/08/07 06:47:36;;;;;;;22.42;3.88;;;;;;;13.47;100.00;101375.03;5088943;28;20031;-74
2023/08/07 06:50:01;;;;;;;15.68;3.20;;;;;;;13.51;100.00;101383.75;5098046;28;20034;-76
2023/08/07 06:52:26;;;;;;;15.88;3.28;;;;;;;13.53;100.00;101374.56;5091526;28;20468;-75
2023/08/07 06:54:52;;;;;;;12.82;3.20;;;;;;;13.57;100.00;101381.44;5097371;28;20016;-75
2023/08/07 06:57:17;;;;;;;15.23;2.90;;;;;;;13.61;100.00;101379.34;5100402;28;20030;-73
2023/08/07 06:59:43;;;;;;;16.10;4.07;;;;;;;13.66;100.00;101376.28;5100618;28;20052;-75
2023/08/07 07:02:08;;;;;;;12.57;3.25;;;;;;;13.70;100.00;101377.78;5095754;28;20028;-75
2023/08/07 07:04:33;;;;;;;17.55;3.28;;;;;;;13.75;100.00;101383.69;5098064;28;20032;-75
2023/08/07 07:06:59;;;;;;;14.30;2.40;;;;;;;13.76;100.00;101386.28;5098639;28;20379;-74
2023/08/07 07:09:24;;;;;;;15.77;3.25;;;;;;;13.78;100.00;101372.66;5097174;28;20031;-75
2023/08/07 07:11:49;;;;;;;13.02;2.80;;;;;;;13.80;100.00;101387.72;5101334;28;20024;-77
2023/08/07 07:14:15;;;;;;;11.20;2.78;;;;;;;13.87;100.00;101380.00;5101954;28;20039;-74
2023/08/07 07:16:42;;;;;;;12.88;2.80;;;;;;;13.94;100.00;101389.34;5099713;28;20424;-75
2023/08/07 07:19:09;;;;;;;16.73;3.15;;;;;;;14.04;100.00;101388.63;5093297;28;20031;-76
2023/08/07 07:21:34;;;;;;;12.00;3.13;;;;;;;14.06;100.00;101401.03;5091168;28;20039;-75
2023/08/07 07:24:00;;;;;;;9.55;3.28;;;;;;;14.11;100.00;101406.06;5104802;28;20083;-77
2023/08/07 07:26:26;;;;;;;14.60;3.30;;;;;;;14.13;97.76;101409.53;5106042;28;20052;-76
2023/08/07 07:28:51;;;;;;;12.20;3.15;;;;;;;14.10;97.41;101407.03;5105634;28;20020;-76
2023/08/07 07:31:16;;;;;;;14.55;3.13;;;;;;;14.11;100.00;101406.06;5111815;28;20028;-76
2023/08/07 07:33:42;;;;;;;11.07;2.75;;;;;;;14.13;99.03;101410.38;5125564;28;20092;-76
2023/08/07 07:36:07;;;;;;;12.30;3.30;;;;;;;14.15;98.83;101410.25;5117965;28;20102;-75
2023/08/07 07:38:32;;;;;;;14.20;3.33;;;;;;;14.17;98.75;101405.56;5126531;28;20106;-75
2023/08/07 07:40:58;;;;;;;14.50;2.78;;;;;;;14.22;99.69;101419.59;5113979;28;20028;-75
2023/08/07 07:43:23;;;;;;;15.85;3.00;;;;;;;14.28;98.81;101418.25;5114942;28;20028;-75
2023/08/07 07:45:49;;;;;;;18.67;3.42;;;;;;;14.33;99.46;101422.31;5106954;28;20104;-77
2023/08/07 07:48:14;;;;;;;11.40;3.00;;;;;;;14.38;97.70;101424.66;5109958;28;20053;-78
2023/08/07 07:50:41;;;;;;;12.00;3.17;;;;;;;14.40;95.50;101436.19;5107046;28;20123;-76
2023/08/07 07:53:06;;;;;;;16.02;3.13;;;;;;;14.41;93.70;101434.38;5103463;28;20116;-77
2023/08/07 07:55:32;;;;;;;13.95;2.88;;;;;;;14.43;96.13;101432.38;5114788;28;20028;-76
2023/08/07 07:57:57;;;;;;;23.42;4.18;;;;;;;14.46;99.48;101437.53;5092708;28;20127;-77
2023/08/07 08:00:26;;;;;;;17.35;3.13;;;;;;;14.49;99.39;101442.69;5086079;28;20028;-79
2023/08/07 08:02:52;;;;;;;19.63;3.08;;;;;;;14.50;96.92;101447.13;5099112;28;20092;-78
2023/08/07 08:05:17;;;;;;;13.10;3.60;;;;;;;14.53;95.30;101448.75;5092238;28;20020;-79
2023/08/07 08:07:43;;;;;;;12.40;3.67;;;;;;;14.53;95.57;101443.34;5098331;28;20383;-79
2023/08/07 08:10:09;;;;;;;11.82;2.88;;;;;;;14.54;94.16;101447.72;5098570;28;20111;-78
2023/08/07 08:12:35;;;;;;;15.68;3.05;;;;;;;14.56;92.87;101452.03;5097740;28;20036;-78
2023/08/07 08:15:01;;;;;;;15.95;2.85;;;;;;;14.63;94.48;101445.19;5080559;28;20040;-75
2023/08/07 08:17:26;;;;;;;13.75;3.20;;;;;;;14.72;98.21;101449.00;5088156;28;20391;-79
2023/08/07 08:19:51;;;;;;;10.57;2.65;;;;;;;14.78;92.64;101458.47;5088500;28;20031;-78
2023/08/07 08:22:17;;;;;;;10.20;2.75;;;;;;;14.85;93.68;101449.72;5096225;28;20537;-78
2023/08/07 08:24:42;;;;;;;17.13;3.75;;;;;;;14.92;93.33;101449.19;5079749;28;20114;-79
2023/08/07 08:27:08;;;;;;;10.90;3.13;;;;;;;14.99;89.28;101454.00;5098963;28;20058;-79
2023/08/07 08:29:33;;;;;;;12.45;2.90;;;;;;;15.05;87.06;101454.47;5094163;28;20139;-79
2023/08/07 08:31:58;;;;;;;11.60;3.17;;;;;;;15.05;88.15;101454.47;5088945;28;20514;-80
2023/08/07 08:34:25;;;;;;;12.35;2.67;;;;;;;15.01;84.87;101449.31;5089920;28;20024;-79
2023/08/07 08:36:51;;;;;;;16.48;3.13;;;;;;;15.04;81.64;101445.50;5091750;28;20108;-81
2023/08/07 08:39:16;;;;;;;10.80;3.22;;;;;;;15.12;88.03;101447.56;5088187;28;20086;-82
2023/08/07 08:41:47;;;;;;;12.15;2.63;;;;;;;15.12;81.64;101451.13;5099116;28;20028;-82
2023/08/07 08:44:14;;;;;;;12.07;2.92;;;;;;;15.19;84.40;101451.47;5079596;28;20490;-80
2023/08/07 08:46:42;;;;;;;14.35;3.13;;;;;;;15.25;85.47;101464.50;5097377;28;20033;-80
2023/08/07 08:49:09;;;;;;;15.55;3.13;;;;;;;15.24;84.00;101465.47;5101185;28;20028;-80
2023/08/07 08:51:35;;;;;;;13.10;3.22;;;;;;;15.24;83.92;101470.03;5093292;28;20024;-81
2023/08/07 08:54:02;;;;;;;13.75;3.35;;;;;;;15.17;82.35;101472.41;5084631;28;20039;-81
2023/08/07 08:56:29;;;;;;;8.82;2.47;;;;;;;15.15;81.20;101466.25;5083850;28;20032;-80
2023/08/07 08:58:55;;;;;;;10.32;2.80;;;;;;;15.19;79.84;101473.13;5094171;28;20027;-80
2023/08/07 09:01:21;;;;;;;13.73;3.13;;;;;;;15.26;85.78;101474.34;5093921;28;20454;-80
2023/08/07 09:03:47;;;;;;;10.18;2.83;;;;;;;15.33;78.70;101478.28;5093110;28;20020;-80
2023/08/07 09:06:13;;;;;;;7.60;2.80;;;;;;;15.42;78.36;101484.75;5089144;28;20089;-74
2023/08/07 09:08:43;;;;;;;10.55;2.78;;;;;;;15.51;75.46;101483.13;5088044;28;20043;-76
2023/08/07 09:11:09;;;;;;;14.77;2.90;;;;;;;15.59;75.64;101477.91;5087505;28;20066;-73
2023/08/07 09:13:36;;;;;;;8.95;2.72;;;;;;;15.68;74.49;101484.41;5104046;28;20051;-72
2023/08/07 09:16:04;;;;;;;12.05;3.35;;;;;;;15.79;76.46;101486.25;5102224;28;20023;-72
2023/08/07 09:18:29;;;;;;;15.40;3.13;;;;;;;15.81;76.24;101489.66;5100410;28;20440;-73
2023/08/07 09:20:57;;;;;;;12.48;2.70;;;;;;;15.84;75.55;101489.41;5081234;28;20024;-72
2023/08/07 09:23:23;;;;;;;11.68;3.17;;;;;;;15.77;76.17;101486.34;5101245;28;20081;-73
2023/08/07 09:25:59;;;;;;;12.27;2.88;;;;;;;15.84;77.42;101494.81;5096257;28;20058;-75
2023/08/07 09:28:24;;;;;;;12.75;3.20;;;;;;;15.92;77.19;101497.75;5103400;28;20123;-73
2023/08/07 09:30:52;;;;;;;14.98;2.85;;;;;;;15.99;73.45;101485.38;5099934;28;20098;-73
2023/08/07 09:33:27;;;;;;;14.32;3.05;;;;;;;16.05;77.23;101484.84;5104930;27;20040;-74
2023/08/07 09:35:56;;;;;;;9.77;2.88;;;;;;;16.09;76.96;101493.56;5102572;28;20016;-74
2023/08/07 09:38:22;;;;;;;11.57;3.08;;;;;;;16.09;78.23;101482.72;5094431;28;20028;-74
2023/08/07 09:40:49;;;;;;;7.93;2.70;;;;;;;16.14;72.93;101483.19;5101514;28;20038;-74
2023/08/07 09:43:21;;;;;;;13.63;3.53;;;;;;;16.18;78.02;101481.94;5104452;28;20042;-73
2023/08/07 09:45:46;;;;;;;14.00;3.05;;;;;;;16.18;74.19;101495.50;5092739;28;20435;-74
2023/08/07 09:48:12;;;;;;;13.00;2.72;;;;;;;16.16;74.01;101502.88;5096743;28;20056;-72
2023/08/07 09:50:37;;;;;;;12.75;3.05;;;;;;;16.16;77.35;101504.75;5102756;28;20062;-72
2023/08/07 09:53:02;;;;;;;8.73;2.75;;;;;;;16.20;79.86;101500.78;5095086;28;20118;-73
2023/08/07 09:55:28;;;;;;;11.85;3.10;;;;;;;16.22;74.37;101505.09;5105843;28;20059;-73
2023/08/07 09:57:54;;;;;;;10.30;2.95;;;;;;;16.26;73.42;101511.09;5101063;28;20038;-73
2023/08/07 10:00:19;;;;;;;13.70;3.28;;;;;;;16.33;70.15;101508.72;5095511;28;20055;-73
2023/08/07 10:02:47;;;;;;;11.40;3.05;;;;;;;16.39;75.28;101509.03;5098184;28;20074;-77
2023/08/07 10:05:13;;;;;;;12.40;3.08;;;;;;;16.43;70.80;101507.78;5088490;28;20084;-73
2023/08/07 10:07:40;;;;;;;9.60;2.80;;;;;;;16.51;70.76;101517.09;5113610;28;20558;-72
2023/08/07 10:10:09;;;;;;;10.93;3.42;;;;;;;16.54;74.46;101517.66;5111066;28;20502;-72
2023/08/07 10:12:36;;;;;;;9.82;2.83;;;;;;;16.49;72.95;101519.09;5091692;28;20023;-73
2023/08/07 10:15:03;;;;;;;12.20;3.03;;;;;;;16.41;65.27;101515.19;5099644;28;20069;-73
2023/08/07 10:17:29;;;;;;;9.10;2.92;;;;;;;16.40;76.10;101524.31;5108463;28;20059;-74
2023/08/07 10:19:54;;;;;;;10.43;3.10;;;;;;;16.36;64.54;101528.28;5103363;28;20099;-77
2023/08/07 10:22:23;;;;;;;10.75;2.55;;;;;;;16.40;69.84;101527.03;5109928;28;20028;-70
2023/08/07 10:24:50;;;;;;;8.93;3.10;;;;;;;16.46;67.84;101524.75;5121232;28;20092;-70
2023/08/07 10:27:20;;;;;;;7.93;2.55;;;;;;;16.54;67.58;101527.66;5128415;28;20023;-70
2023/08/07 10:29:47;;;;;;;7.53;2.40;;;;;;;16.63;68.99;101521.41;5121089;28;20028;-79
2023/08/07 10:32:15;;;;;;;8.88;2.67;;;;;;;16.66;65.53;101523.00;5089584;28;20028;-73
2023/08/07 10:34:42;;;;;;;5.82;2.70;;;;;;;16.65;66.62;101524.00;5110752;28;20149;-73
2023/08/07 10:37:08;;;;;;;14.18;3.15;;;;;;;16.64;67.88;101528.56;5102250;28;20028;-73
2023/08/07 10:39:33;;;;;;;6.97;2.40;;;;;;;16.63;69.96;101535.00;5100621;28;20034;-73
2023/08/07 10:42:00;;;;;;;12.73;3.65;;;;;;;16.60;71.04;101536.16;5090964;28;20030;-75
2023/08/07 10:44:30;;;;;;;10.43;2.90;;;;;;;16.59;67.23;101539.84;5088484;28;20495;-73
2023/08/07 10:46:57;;;;;;;13.85;2.83;;;;;;;16.62;66.90;101548.69;5100951;28;20391;-74
2023/08/07 10:49:33;;;;;;;9.18;2.70;;;;;;;16.75;72.76;101547.50;5098816;28;20039;-73
2023/08/07 10:52:01;;;;;;;12.05;3.00;;;;;;;16.73;70.30;101544.03;5094337;28;20036;-73
2023/08/07 10:54:26;;;;;;;8.50;3.03;;;;;;;16.77;69.25;101548.22;5104831;28;20020;-73
2023/08/07 10:56:54;;;;;;;12.45;3.03;;;;;;;16.76;72.79;101549.22;5091589;28;20054;-73
2023/08/07 10:59:19;;;;;;;7.38;2.13;;;;;;;16.77;67.37;101540.06;5096112;28;20424;-73
2023/08/07 11:01:51;;;;;;;9.98;2.72;;;;;;;16.80;67.22;101554.38;5100725;28;20035;-72
2023/08/07 11:04:16;;;;;;;10.25;2.50;;;;;;;16.74;66.35;101553.06;5108734;28;20383;-73
2023/08/07 11:06:46;;;;;;;11.30;2.78;;;;;;;16.66;65.63;101553.75;5098337;28;20036;-74